No1 Tokuyama — JK5318 — position and weather

sailwx.info

Track history (hours):
 
Tides and Currents Weather Stations Pressure Air Temp Water Temp Dewpoint Dewpoint Depression Visibility Wind Speed Wind Dir Waves Ship Positions

No1 Tokuyama

Last reported at 2016-May-23 04:33 UTC. Time now 2016-May-25 01:27 UTC.
Position N 34°34' E 134°50'.

Length 110 m; draft 5.4 m.

Type: Cargo ship. MMSI: 431400487.

Date/timePositionNaut miles runAvg speedWind from/ knotsBaromVisibWave heightAir tempDewpointWater temp
2016-May-23 04:33N 34°34' E 134°50'1111.0
2016-May-23 03:32N 34°36' E 135°03'1313.0
2016-May-23 02:33N 34°37' E 135°19'7 6.8
2016-May-23 01:33N 34°39' E 135°27'0 0.0
2016-May-23 00:29N 34°39' E 135°27'0 0.0
2016-May-22 23:29N 34°39' E 135°27'0 0.0
2016-May-22 22:29N 34°39' E 135°27'0 0.0
2016-May-22 21:29N 34°39' E 135°27'0 0.0
2016-May-22 20:23N 34°39' E 135°27'0 0.0
2016-May-22 19:29N 34°39' E 135°27'0 0.0
2016-May-22 18:29N 34°39' E 135°27'0 0.0
2016-May-22 17:29N 34°39' E 135°27'0 0.0
2016-May-22 16:29N 34°39' E 135°27'0 0.0
2016-May-22 15:11N 34°39' E 135°27'0 0.0
2016-May-22 14:29N 34°39' E 135°27'0 0.0
2016-May-22 13:29N 34°39' E 135°27'0 0.0
2016-May-22 12:29N 34°39' E 135°27'0 0.0
2016-May-22 11:29N 34°39' E 135°27'0 0.0
2016-May-22 10:23N 34°39' E 135°27'0 0.0
2016-May-22 09:29N 34°39' E 135°27'0 0.0
2016-May-22 08:29N 34°39' E 135°27'0 0.0
2016-May-22 07:23N 34°39' E 135°27'0 0.0
2016-May-22 06:29N 34°39' E 135°27'0 0.0
2016-May-22 05:23N 34°39' E 135°27'0 0.0
2016-May-22 04:29N 34°39' E 135°27'0 0.0
2016-May-22 03:29N 34°39' E 135°27'0 0.0
2016-May-22 02:29N 34°39' E 135°27'0 0.0
2016-May-22 01:23N 34°39' E 135°27'0 0.0
2016-May-22 00:29N 34°39' E 135°27'0 0.0
2016-May-21 23:29N 34°39' E 135°27'0 0.0
2016-May-21 22:29N 34°39' E 135°27'0 0.0
2016-May-21 21:29N 34°39' E 135°27'0 0.0
2016-May-21 20:23N 34°39' E 135°27'0 0.0
2016-May-21 19:29N 34°39' E 135°27'0 0.0
2016-May-21 18:29N 34°39' E 135°27'0 0.0
2016-May-21 17:29N 34°39' E 135°27'0 0.0
2016-May-21 16:29N 34°39' E 135°27'0 0.0
2016-May-21 15:05N 34°39' E 135°27'0 0.0
2016-May-21 14:29N 34°39' E 135°27'0 0.0
2016-May-21 13:23N 34°39' E 135°27'0 0.0
2016-May-21 12:29N 34°39' E 135°27'0 0.0
2016-May-21 11:29N 34°39' E 135°27'0 0.0
2016-May-21 10:29N 34°39' E 135°27'0 0.0
2016-May-21 09:23N 34°39' E 135°27'0 0.0
2016-May-21 08:23N 34°39' E 135°27'1 1.5
2016-May-21 07:33N 34°39' E 135°25'1313.1
2016-May-21 06:33N 34°35' E 135°10'1615.2
2016-May-21 05:32N 34°38' E 134°51'  
2016-May-17 05:33N 34°57' E 139°27'1211.6
2016-May-17 04:30N 35°05' E 139°39'1111.8
2016-May-17 03:34N 35°14' E 139°46'1211.5
2016-May-17 02:34N 35°25' E 139°42'1 1.0
2016-May-17 01:28N 35°26' E 139°41'0 0.0
2016-May-17 00:31N 35°26' E 139°41'0 0.0
2016-May-16 23:31N 35°26' E 139°41'0 0.0
2016-May-16 22:33N 35°26' E 139°41'6 5.7
2016-May-16 21:33N 35°28' E 139°48'6 5.9
2016-May-16 20:33N 35°28' E 139°55'0 0.0
2016-May-16 19:33N 35°28' E 139°55'0 0.0
2016-May-16 18:33N 35°28' E 139°55'0 0.0
2016-May-16 17:33N 35°28' E 139°55'0 0.0
2016-May-16 16:33N 35°28' E 139°55'0 0.0
2016-May-16 15:31N 35°28' E 139°55'0 0.1
2016-May-16 14:33N 35°29' E 139°55'0 0.0
2016-May-16 13:33N 35°29' E 139°55'0 0.0
2016-May-16 12:33N 35°29' E 139°55'0 0.0
2016-May-16 11:34N 35°29' E 139°55'0 0.0
2016-May-16 10:33N 35°29' E 139°55'0 0.0
2016-May-16 09:34N 35°29' E 139°55'0 0.0
2016-May-16 08:31N 35°29' E 139°55'0 0.1
2016-May-16 07:33N 35°29' E 139°55'0 0.0
2016-May-16 06:33N 35°29' E 139°55'0 0.0
2016-May-16 05:30N 35°29' E 139°55'0 0.0
2016-May-16 04:33N 35°28' E 139°55'0 0.0
2016-May-16 03:33N 35°28' E 139°55'0 0.0
2016-May-16 02:33N 35°28' E 139°55'0 0.1
2016-May-16 01:34N 35°28' E 139°55'7 6.9
2016-May-16 00:34N 35°30' E 139°47'2 2.3
2016-May-15 23:32N 35°30' E 139°44'0 0.0
2016-May-15 22:32N 35°30' E 139°44'0 0.0
2016-May-15 21:32N 35°30' E 139°44'0 0.0
2016-May-15 20:32N 35°30' E 139°44'1 0.8
2016-May-15 19:33N 35°29' E 139°43'5 5.3
2016-May-15 18:32N 35°24' E 139°45'0 0.0
2016-May-15 17:32N 35°24' E 139°45'0 0.0
2016-May-15 16:32N 35°24' E 139°45'0 0.0
2016-May-15 15:32N 35°24' E 139°45'0 0.0
2016-May-15 14:32N 35°24' E 139°45'0 0.0
2016-May-15 13:32N 35°24' E 139°45'0 0.0
2016-May-15 12:32N 35°24' E 139°45'0 0.0
2016-May-15 11:32N 35°24' E 139°45'0 0.0
2016-May-15 10:32N 35°24' E 139°45'0 0.0
2016-May-15 09:29N 35°24' E 139°45'0 0.0
2016-May-15 08:32N 35°24' E 139°45'7 6.8
2016-May-15 07:33N 35°18' E 139°45'1110.8
2016-May-15 06:33N 35°07' E 139°45'  
Track history (hours):
 
Tides and Currents Weather Stations Pressure Air Temp Water Temp Dewpoint Dewpoint Depression Visibility Wind Speed Wind Dir Waves Ship Positions

No1 Tokuyama

Last reported at 2016-May-23 04:33 UTC. Time now 2016-May-25 01:27 UTC.
Position N 34°34' E 134°50'.

Length 110 m; draft 5.4 m.

Type: Cargo ship. MMSI: 431400487.

Date/timePositionNaut miles runAvg speedWind from/ knotsBaromVisibWave heightAir tempDewpointWater temp
2016-May-23 04:33N 34°34' E 134°50'1111.0
2016-May-23 03:32N 34°36' E 135°03'1313.0
2016-May-23 02:33N 34°37' E 135°19'7 6.8
2016-May-23 01:33N 34°39' E 135°27'0 0.0
2016-May-23 00:29N 34°39' E 135°27'0 0.0
2016-May-22 23:29N 34°39' E 135°27'0 0.0
2016-May-22 22:29N 34°39' E 135°27'0 0.0
2016-May-22 21:29N 34°39' E 135°27'0 0.0
2016-May-22 20:23N 34°39' E 135°27'0 0.0
2016-May-22 19:29N 34°39' E 135°27'0 0.0
2016-May-22 18:29N 34°39' E 135°27'0 0.0
2016-May-22 17:29N 34°39' E 135°27'0 0.0
2016-May-22 16:29N 34°39' E 135°27'0 0.0
2016-May-22 15:11N 34°39' E 135°27'0 0.0
2016-May-22 14:29N 34°39' E 135°27'0 0.0
2016-May-22 13:29N 34°39' E 135°27'0 0.0
2016-May-22 12:29N 34°39' E 135°27'0 0.0
2016-May-22 11:29N 34°39' E 135°27'0 0.0
2016-May-22 10:23N 34°39' E 135°27'0 0.0
2016-May-22 09:29N 34°39' E 135°27'0 0.0
2016-May-22 08:29N 34°39' E 135°27'0 0.0
2016-May-22 07:23N 34°39' E 135°27'0 0.0
2016-May-22 06:29N 34°39' E 135°27'0 0.0
2016-May-22 05:23N 34°39' E 135°27'0 0.0
2016-May-22 04:29N 34°39' E 135°27'0 0.0
2016-May-22 03:29N 34°39' E 135°27'0 0.0
2016-May-22 02:29N 34°39' E 135°27'0 0.0
2016-May-22 01:23N 34°39' E 135°27'0 0.0
2016-May-22 00:29N 34°39' E 135°27'0 0.0
2016-May-21 23:29N 34°39' E 135°27'0 0.0
2016-May-21 22:29N 34°39' E 135°27'0 0.0
2016-May-21 21:29N 34°39' E 135°27'0 0.0
2016-May-21 20:23N 34°39' E 135°27'0 0.0
2016-May-21 19:29N 34°39' E 135°27'0 0.0
2016-May-21 18:29N 34°39' E 135°27'0 0.0
2016-May-21 17:29N 34°39' E 135°27'0 0.0
2016-May-21 16:29N 34°39' E 135°27'0 0.0
2016-May-21 15:05N 34°39' E 135°27'0 0.0
2016-May-21 14:29N 34°39' E 135°27'0 0.0
2016-May-21 13:23N 34°39' E 135°27'0 0.0
2016-May-21 12:29N 34°39' E 135°27'0 0.0
2016-May-21 11:29N 34°39' E 135°27'0 0.0
2016-May-21 10:29N 34°39' E 135°27'0 0.0
2016-May-21 09:23N 34°39' E 135°27'0 0.0
2016-May-21 08:23N 34°39' E 135°27'1 1.5
2016-May-21 07:33N 34°39' E 135°25'1313.1
2016-May-21 06:33N 34°35' E 135°10'1615.2
2016-May-21 05:32N 34°38' E 134°51'  
2016-May-17 05:33N 34°57' E 139°27'1211.6
2016-May-17 04:30N 35°05' E 139°39'1111.8
2016-May-17 03:34N 35°14' E 139°46'1211.5
2016-May-17 02:34N 35°25' E 139°42'1 1.0
2016-May-17 01:28N 35°26' E 139°41'0 0.0
2016-May-17 00:31N 35°26' E 139°41'0 0.0
2016-May-16 23:31N 35°26' E 139°41'0 0.0
2016-May-16 22:33N 35°26' E 139°41'6 5.7
2016-May-16 21:33N 35°28' E 139°48'6 5.9
2016-May-16 20:33N 35°28' E 139°55'0 0.0
2016-May-16 19:33N 35°28' E 139°55'0 0.0
2016-May-16 18:33N 35°28' E 139°55'0 0.0
2016-May-16 17:33N 35°28' E 139°55'0 0.0
2016-May-16 16:33N 35°28' E 139°55'0 0.0
2016-May-16 15:31N 35°28' E 139°55'0 0.1
2016-May-16 14:33N 35°29' E 139°55'0 0.0
2016-May-16 13:33N 35°29' E 139°55'0 0.0
2016-May-16 12:33N 35°29' E 139°55'0 0.0
2016-May-16 11:34N 35°29' E 139°55'0 0.0
2016-May-16 10:33N 35°29' E 139°55'0 0.0
2016-May-16 09:34N 35°29' E 139°55'0 0.0
2016-May-16 08:31N 35°29' E 139°55'0 0.1
2016-May-16 07:33N 35°29' E 139°55'0 0.0
2016-May-16 06:33N 35°29' E 139°55'0 0.0
2016-May-16 05:30N 35°29' E 139°55'0 0.0
2016-May-16 04:33N 35°28' E 139°55'0 0.0
2016-May-16 03:33N 35°28' E 139°55'0 0.0
2016-May-16 02:33N 35°28' E 139°55'0 0.1
2016-May-16 01:34N 35°28' E 139°55'7 6.9
2016-May-16 00:34N 35°30' E 139°47'2 2.3
2016-May-15 23:32N 35°30' E 139°44'0 0.0
2016-May-15 22:32N 35°30' E 139°44'0 0.0
2016-May-15 21:32N 35°30' E 139°44'0 0.0
2016-May-15 20:32N 35°30' E 139°44'1 0.8
2016-May-15 19:33N 35°29' E 139°43'5 5.3
2016-May-15 18:32N 35°24' E 139°45'0 0.0
2016-May-15 17:32N 35°24' E 139°45'0 0.0
2016-May-15 16:32N 35°24' E 139°45'0 0.0
2016-May-15 15:32N 35°24' E 139°45'0 0.0
2016-May-15 14:32N 35°24' E 139°45'0 0.0
2016-May-15 13:32N 35°24' E 139°45'0 0.0
2016-May-15 12:32N 35°24' E 139°45'0 0.0
2016-May-15 11:32N 35°24' E 139°45'0 0.0
2016-May-15 10:32N 35°24' E 139°45'0 0.0
2016-May-15 09:29N 35°24' E 139°45'0 0.0
2016-May-15 08:32N 35°24' E 139°45'7 6.8
2016-May-15 07:33N 35°18' E 139°45'1110.8
2016-May-15 06:33N 35°07' E 139°45'  

Dump ship's entire track history